sensor_id;sensor_type;location;lat;lon;timestamp;pressure;altitude;pressure_sealevel;temperature;humidity
68193;BME280;55012;47.562;18.414;2023-02-16T00:01:07;101035.84;;;-0.26;100.00
68193;BME280;55012;47.562;18.414;2023-02-16T00:03:39;101033.44;;;-0.28;100.00
68193;BME280;55012;47.562;18.414;2023-02-16T00:06:04;101022.22;;;-0.30;100.00
68193;BME280;55012;47.562;18.414;2023-02-16T00:08:29;101029.63;;;-0.32;100.00
68193;BME280;55012;47.562;18.414;2023-02-16T00:10:55;101030.66;;;-0.33;100.00
68193;BME280;55012;47.562;18.414;2023-02-16T00:13:39;101017.22;;;-0.38;100.00
68193;BME280;55012;47.562;18.414;2023-02-16T00:16:22;101022.41;;;-0.43;100.00
68193;BME280;55012;47.562;18.414;2023-02-16T00:18:48;101015.13;;;-0.48;100.00
68193;BME280;55012;47.562;18.414;2023-02-16T00:21:14;101018.03;;;-0.49;100.00
68193;BME280;55012;47.562;18.414;2023-02-16T00:23:40;101010.25;;;-0.51;100.00
68193;BME280;55012;47.562;18.414;2023-02-16T00:26:12;101016.38;;;-0.50;100.00
68193;BME280;55012;47.562;18.414;2023-02-16T00:28:39;101009.69;;;-0.53;100.00
68193;BME280;55012;47.562;18.414;2023-02-16T00:31:04;101013.38;;;-0.54;100.00
68193;BME280;55012;47.562;18.414;2023-02-16T00:33:30;101014.44;;;-0.55;100.00
68193;BME280;55012;47.562;18.414;2023-02-16T00:35:55;101012.00;;;-0.57;100.00
68193;BME280;55012;47.562;18.414;2023-02-16T00:38:21;101007.13;;;-0.60;100.00
68193;BME280;55012;47.562;18.414;2023-02-16T00:40:46;101001.00;;;-0.60;100.00
68193;BME280;55012;47.562;18.414;2023-02-16T00:43:26;101002.84;;;-0.61;100.00
68193;BME280;55012;47.562;18.414;2023-02-16T00:45:53;101009.19;;;-0.62;100.00
68193;BME280;55012;47.562;18.414;2023-02-16T00:48:21;100996.94;;;-0.63;100.00
68193;BME280;55012;47.562;18.414;2023-02-16T00:50:46;101000.66;;;-0.64;100.00
68193;BME280;55012;47.562;18.414;2023-02-16T00:53:12;101001.22;;;-0.62;100.00
68193;BME280;55012;47.562;18.414;2023-02-16T00:55:39;100998.34;;;-0.60;100.00
68193;BME280;55012;47.562;18.414;2023-02-16T01:00:41;100993.59;;;-0.58;100.00
68193;BME280;55012;47.562;18.414;2023-02-16T01:03:12;100989.13;;;-0.58;100.00
68193;BME280;55012;47.562;18.414;2023-02-16T01:05:38;100991.53;;;-0.56;100.00
68193;BME280;55012;47.562;18.414;2023-02-16T01:08:09;100980.69;;;-0.54;100.00
68193;BME280;55012;47.562;18.414;2023-02-16T01:10:53;100979.63;;;-0.53;100.00
68193;BME280;55012;47.562;18.414;2023-02-16T01:13:36;100973.75;;;-0.55;100.00
68193;BME280;55012;47.562;18.414;2023-02-16T01:16:02;100979.88;;;-0.55;100.00
68193;BME280;55012;47.562;18.414;2023-02-16T01:18:28;100984.16;;;-0.54;100.00
68193;BME280;55012;47.562;18.414;2023-02-16T01:20:53;100967.63;;;-0.56;100.00
68193;BME280;55012;47.562;18.414;2023-02-16T01:23:19;100965.19;;;-0.58;100.00
68193;BME280;55012;47.562;18.414;2023-02-16T01:25:44;100973.28;;;-0.52;100.00
68193;BME280;55012;47.562;18.414;2023-02-16T01:28:24;100972.22;;;-0.51;100.00
68193;BME280;55012;47.562;18.414;2023-02-16T01:30:51;100972.84;;;-0.49;100.00
68193;BME280;55012;47.562;18.414;2023-02-16T01:33:17;100973.19;;;-0.46;100.00
68193;BME280;55012;47.562;18.414;2023-02-16T01:35:43;100971.66;;;-0.42;100.00
68193;BME280;55012;47.562;18.414;2023-02-16T01:38:17;100982.91;;;-0.40;100.00
68193;BME280;55012;47.562;18.414;2023-02-16T01:44:01;100964.41;;;-0.35;100.00
68193;BME280;55012;47.562;18.414;2023-02-16T01:49:16;100961.88;;;-0.30;100.00
68193;BME280;55012;47.562;18.414;2023-02-16T01:54:33;100963.72;;;-0.30;100.00
68193;BME280;55012;47.562;18.414;2023-02-16T02:02:01;100956.56;;;-0.41;100.00
68193;BME280;55012;47.562;18.414;2023-02-16T02:04:42;100953.91;;;-0.41;100.00
68193;BME280;55012;47.562;18.414;2023-02-16T02:10:19;100946.34;;;-0.44;100.00
68193;BME280;55012;47.562;18.414;2023-02-16T02:12:54;100945.53;;;-0.45;100.00
68193;BME280;55012;47.562;18.414;2023-02-16T02:15:22;100942.31;;;-0.47;100.00
68193;BME280;55012;47.562;18.414;2023-02-16T02:17:48;100933.97;;;-0.50;100.00
68193;BME280;55012;47.562;18.414;2023-02-16T02:28:46;100931.56;;;-0.64;100.00
68193;BME280;55012;47.562;18.414;2023-02-16T02:36:49;100931.31;;;-0.74;100.00
68193;BME280;55012;47.562;18.414;2023-02-16T02:39:45;100927.84;;;-0.74;100.00
68193;BME280;55012;47.562;18.414;2023-02-16T02:45:02;100917.66;;;-0.77;100.00
68193;BME280;55012;47.562;18.414;2023-02-16T02:47:42;100916.28;;;-0.80;100.00
68193;BME280;55012;47.562;18.414;2023-02-16T02:50:41;100918.13;;;-0.80;100.00
68193;BME280;55012;47.562;18.414;2023-02-16T02:53:28;100912.00;;;-0.81;100.00
68193;BME280;55012;47.562;18.414;2023-02-16T02:55:58;100910.97;;;-0.80;100.00
68193;BME280;55012;47.562;18.414;2023-02-16T02:58:43;100914.06;;;-0.83;100.00
68193;BME280;55012;47.562;18.414;2023-02-16T03:01:30;100898.34;;;-0.85;100.00
68193;BME280;55012;47.562;18.414;2023-02-16T03:03:58;100901.81;;;-0.84;100.00
68193;BME280;55012;47.562;18.414;2023-02-16T03:06:29;100908.53;;;-0.81;100.00
68193;BME280;55012;47.562;18.414;2023-02-16T03:09:01;100901.38;;;-0.81;100.00
68193;BME280;55012;47.562;18.414;2023-02-16T03:11:29;100901.72;;;-0.77;100.00
68193;BME280;55012;47.562;18.414;2023-02-16T03:14:17;100902.28;;;-0.75;100.00
68193;BME280;55012;47.562;18.414;2023-02-16T03:16:45;100903.69;;;-0.73;100.00
68193;BME280;55012;47.562;18.414;2023-02-16T03:19:14;100898.16;;;-0.71;100.00
68193;BME280;55012;47.562;18.414;2023-02-16T03:21:59;100898.97;;;-0.71;100.00
68193;BME280;55012;47.562;18.414;2023-02-16T03:24:44;100901.38;;;-0.69;100.00
68193;BME280;55012;47.562;18.414;2023-02-16T03:27:39;100896.88;;;-0.69;100.00
68193;BME280;55012;47.562;18.414;2023-02-16T03:30:25;100900.56;;;-0.70;100.00
68193;BME280;55012;47.562;18.414;2023-02-16T03:32:52;100898.16;;;-0.71;100.00
68193;BME280;55012;47.562;18.414;2023-02-16T03:35:18;100898.97;;;-0.71;100.00
68193;BME280;55012;47.562;18.414;2023-02-16T03:37:44;100894.09;;;-0.74;100.00
68193;BME280;55012;47.562;18.414;2023-02-16T03:40:13;100896.75;;;-0.74;100.00
68193;BME280;55012;47.562;18.414;2023-02-16T03:42:52;100896.75;;;-0.74;100.00
68193;BME280;55012;47.562;18.414;2023-02-16T03:45:18;100899.19;;;-0.72;100.00
68193;BME280;55012;47.562;18.414;2023-02-16T03:47:44;100900.00;;;-0.72;100.00
68193;BME280;55012;47.562;18.414;2023-02-16T03:50:10;100898.97;;;-0.71;100.00
68193;BME280;55012;47.562;18.414;2023-02-16T03:52:35;100892.03;;;-0.72;100.00
68193;BME280;55012;47.562;18.414;2023-02-16T03:55:01;100893.06;;;-0.73;100.00
68193;BME280;55012;47.562;18.414;2023-02-16T03:57:26;100898.97;;;-0.71;100.00
68193;BME280;55012;47.562;18.414;2023-02-16T03:59:51;100891.78;;;-0.70;100.00
68193;BME280;55012;47.562;18.414;2023-02-16T04:02:18;100898.72;;;-0.69;100.00
68193;BME280;55012;47.562;18.414;2023-02-16T04:04:44;100898.72;;;-0.69;100.00
68193;BME280;55012;47.562;18.414;2023-02-16T04:07:10;100894.44;;;-0.70;100.00
68193;BME280;55012;47.562;18.414;2023-02-16T04:09:35;100898.72;;;-0.69;100.00
68193;BME280;55012;47.562;18.414;2023-02-16T04:12:01;100894.44;;;-0.70;100.00
68193;BME280;55012;47.562;18.414;2023-02-16T04:14:45;100897.44;;;-0.67;100.00
68193;BME280;55012;47.562;18.414;2023-02-16T04:17:10;100891.31;;;-0.67;100.00
68193;BME280;55012;47.562;18.414;2023-02-16T04:19:35;100885.81;;;-0.66;100.00
68193;BME280;55012;47.562;18.414;2023-02-16T04:22:01;100892.97;;;-0.66;100.00
68193;BME280;55012;47.562;18.414;2023-02-16T04:24:26;100889.47;;;-0.67;100.00
68193;BME280;55012;47.562;18.414;2023-02-16T04:26:52;100893.97;;;-0.67;100.00
68193;BME280;55012;47.562;18.414;2023-02-16T04:29:17;100890.75;;;-0.69;100.00
68193;BME280;55012;47.562;18.414;2023-02-16T04:31:43;100883.81;;;-0.70;100.00
68193;BME280;55012;47.562;18.414;2023-02-16T04:34:08;100884.63;;;-0.70;100.00
68193;BME280;55012;47.562;18.414;2023-02-16T04:36:34;100880.34;;;-0.71;100.00
68193;BME280;55012;47.562;18.414;2023-02-16T04:38:59;100881.50;;;-0.67;100.00
68193;BME280;55012;47.562;18.414;2023-02-16T04:41:25;100876.78;;;-0.65;100.00
68193;BME280;55012;47.562;18.414;2023-02-16T04:43:51;100878.41;;;-0.64;100.00
68193;BME280;55012;47.562;18.414;2023-02-16T04:46:16;100877.34;;;-0.63;100.00
68193;BME280;55012;47.562;18.414;2023-02-16T04:48:44;100873.66;;;-0.62;100.00
68193;BME280;55012;47.562;18.414;2023-02-16T04:51:09;100873.88;;;-0.63;100.00
68193;BME280;55012;47.562;18.414;2023-02-16T04:53:35;100881.06;;;-0.64;100.00
68193;BME280;55012;47.562;18.414;2023-02-16T04:56:00;100878.41;;;-0.64;100.00
68193;BME280;55012;47.562;18.414;2023-02-16T04:58:26;100877.03;;;-0.66;100.00
68193;BME280;55012;47.562;18.414;2023-02-16T05:00:51;100878.03;;;-0.67;100.00
68193;BME280;55012;47.562;18.414;2023-02-16T05:03:17;100877.47;;;-0.69;100.00
68193;BME280;55012;47.562;18.414;2023-02-16T05:05:42;100875.50;;;-0.74;100.00
68193;BME280;55012;47.562;18.414;2023-02-16T05:08:07;100870.41;;;-0.75;100.00
68193;BME280;55012;47.562;18.414;2023-02-16T05:10:33;100873.06;;;-0.75;100.00
68193;BME280;55012;47.562;18.414;2023-02-16T05:12:58;100872.25;;;-0.76;100.00
68193;BME280;55012;47.562;18.414;2023-02-16T05:15:42;100858.97;;;-0.76;100.00
68193;BME280;55012;47.562;18.414;2023-02-16T05:18:09;100853.88;;;-0.77;100.00
68193;BME280;55012;47.562;18.414;2023-02-16T05:20:34;100857.59;;;-0.78;100.00
68193;BME280;55012;47.562;18.414;2023-02-16T05:23:18;100864.50;;;-0.77;100.00
68193;BME280;55012;47.562;18.414;2023-02-16T05:25:43;100851.47;;;-0.79;100.00
68193;BME280;55012;47.562;18.414;2023-02-16T05:28:09;100857.81;;;-0.80;100.00
68193;BME280;55012;47.562;18.414;2023-02-16T05:30:35;100859.09;;;-0.82;100.00
68193;BME280;55012;47.562;18.414;2023-02-16T05:33:00;100851.56;;;-0.86;100.00
68193;BME280;55012;47.562;18.414;2023-02-16T05:35:26;100859.19;;;-0.89;100.00
68193;BME280;55012;47.562;18.414;2023-02-16T05:37:51;100851.22;;;-0.89;100.00
68193;BME280;55012;47.562;18.414;2023-02-16T05:40:17;100848.22;;;-0.93;100.00
68193;BME280;55012;47.562;18.414;2023-02-16T05:42:42;100845.22;;;-0.96;100.00
68193;BME280;55012;47.562;18.414;2023-02-16T05:45:08;100852.59;;;-0.98;100.00
68193;BME280;55012;47.562;18.414;2023-02-16T05:47:34;100845.31;;;-1.03;100.00
68193;BME280;55012;47.562;18.414;2023-02-16T05:49:59;100855.38;;;-1.05;100.00
68193;BME280;55012;47.562;18.414;2023-02-16T05:52:25;100847.03;;;-1.08;100.00
68193;BME280;55012;47.562;18.414;2023-02-16T05:54:50;100849.91;;;-1.10;100.00
68193;BME280;55012;47.562;18.414;2023-02-16T05:57:16;100848.88;;;-1.09;100.00
68193;BME280;55012;47.562;18.414;2023-02-16T05:59:41;100846.22;;;-1.09;100.00
68193;BME280;55012;47.562;18.414;2023-02-16T06:02:07;100854.19;;;-1.09;100.00
68193;BME280;55012;47.562;18.414;2023-02-16T06:04:34;100855.78;;;-1.08;100.00
68193;BME280;55012;47.562;18.414;2023-02-16T06:07:00;100848.44;;;-1.06;100.00
68193;BME280;55012;47.562;18.414;2023-02-16T06:09:25;100850.84;;;-1.04;100.00
68193;BME280;55012;47.562;18.414;2023-02-16T06:11:51;100851.66;;;-1.04;100.00
68193;BME280;55012;47.562;18.414;2023-02-16T06:14:18;100846.69;;;-1.00;100.00
68193;BME280;55012;47.562;18.414;2023-02-16T06:16:46;100840.38;;;-0.99;100.00
68193;BME280;55012;47.562;18.414;2023-02-16T06:19:12;100839.91;;;-0.96;100.00
68193;BME280;55012;47.562;18.414;2023-02-16T06:21:39;100838.75;;;-0.89;100.00
68193;BME280;55012;47.562;18.414;2023-02-16T06:24:06;100847.19;;;-0.80;100.00
68193;BME280;55012;47.562;18.414;2023-02-16T06:26:32;100846.28;;;-0.74;100.00
68193;BME280;55012;47.562;18.414;2023-02-16T06:28:57;100844.28;;;-0.67;100.00
68193;BME280;55012;47.562;18.414;2023-02-16T06:31:23;100847.88;;;-0.61;100.00
68193;BME280;55012;47.562;18.414;2023-02-16T06:33:49;100848.81;;;-0.55;100.00
68193;BME280;55012;47.562;18.414;2023-02-16T06:36:15;100850.75;;;-0.51;100.00
68193;BME280;55012;47.562;18.414;2023-02-16T06:38:41;100845.34;;;-0.44;100.00
68193;BME280;55012;47.562;18.414;2023-02-16T06:41:07;100846.25;;;-0.39;100.00
68193;BME280;55012;47.562;18.414;2023-02-16T06:43:32;100843.25;;;-0.31;100.00
68193;BME280;55012;47.562;18.414;2023-02-16T06:45:58;100841.28;;;-0.23;100.00
68193;BME280;55012;47.562;18.414;2023-02-16T06:48:23;100840.31;;;-0.17;100.00
68193;BME280;55012;47.562;18.414;2023-02-16T06:50:49;100837.53;;;-0.11;100.00
68193;BME280;55012;47.562;18.414;2023-02-16T06:53:15;100842.97;;;-0.06;100.00
68193;BME280;55012;47.562;18.414;2023-02-16T06:55:40;100841.81;;;0.02;100.00
68193;BME280;55012;47.562;18.414;2023-02-16T06:58:06;100844.09;;;0.10;100.00
68193;BME280;55012;47.562;18.414;2023-02-16T07:00:33;100844.16;;;0.15;100.00
68193;BME280;55012;47.562;18.414;2023-02-16T07:02:59;100844.53;;;0.19;100.00
68193;BME280;55012;47.562;18.414;2023-02-16T07:05:24;100858.50;;;0.26;100.00
68193;BME280;55012;47.562;18.414;2023-02-16T07:07:50;100858.84;;;0.30;100.00
68193;BME280;55012;47.562;18.414;2023-02-16T07:10:16;100856.50;;;0.33;100.00
68193;BME280;55012;47.562;18.414;2023-02-16T07:12:41;100857.16;;;0.40;100.00
68193;BME280;55012;47.562;18.414;2023-02-16T07:15:07;100858.88;;;0.46;100.00
68193;BME280;55012;47.562;18.414;2023-02-16T07:17:33;100854.47;;;0.52;100.00
68193;BME280;55012;47.562;18.414;2023-02-16T07:19:59;100861.25;;;0.60;100.00
68193;BME280;55012;47.562;18.414;2023-02-16T07:22:24;100859.59;;;0.70;100.00
68193;BME280;55012;47.562;18.414;2023-02-16T07:24:50;100857.59;;;0.77;100.00
68193;BME280;55012;47.562;18.414;2023-02-16T07:27:15;100854.78;;;0.84;100.00
68193;BME280;55012;47.562;18.414;2023-02-16T07:29:40;100852.41;;;0.88;100.00
68193;BME280;55012;47.562;18.414;2023-02-16T07:32:07;100860.81;;;0.96;100.00
68193;BME280;55012;47.562;18.414;2023-02-16T07:34:32;100865.44;;;1.01;100.00
68193;BME280;55012;47.562;18.414;2023-02-16T07:36:57;100862.59;;;1.07;100.00
68193;BME280;55012;47.562;18.414;2023-02-16T07:39:23;100872.53;;;1.12;100.00
68193;BME280;55012;47.562;18.414;2023-02-16T07:41:49;100876.91;;;1.18;100.00
68193;BME280;55012;47.562;18.414;2023-02-16T07:44:14;100875.47;;;1.27;100.00
68193;BME280;55012;47.562;18.414;2023-02-16T07:46:39;100887.31;;;1.36;100.00
68193;BME280;55012;47.562;18.414;2023-02-16T07:49:05;100881.84;;;1.43;100.00
68193;BME280;55012;47.562;18.414;2023-02-16T07:51:31;100892.56;;;1.48;100.00
68193;BME280;55012;47.562;18.414;2023-02-16T07:53:57;100891.84;;;1.53;100.00
68193;BME280;55012;47.562;18.414;2023-02-16T07:56:29;100884.94;;;1.57;100.00
68193;BME280;55012;47.562;18.414;2023-02-16T07:58:56;100888.00;;;1.65;100.00
68193;BME280;55012;47.562;18.414;2023-02-16T08:01:22;100895.03;;;1.72;100.00
68193;BME280;55012;47.562;18.414;2023-02-16T08:03:49;100890.59;;;1.77;100.00
68193;BME280;55012;47.562;18.414;2023-02-16T08:06:15;100898.19;;;1.85;100.00
68193;BME280;55012;47.562;18.414;2023-02-16T08:08:41;100902.03;;;1.94;100.00
68193;BME280;55012;47.562;18.414;2023-02-16T08:11:14;100900.28;;;2.05;100.00
68193;BME280;55012;47.562;18.414;2023-02-16T08:13:40;100903.13;;;2.15;100.00
68193;BME280;55012;47.562;18.414;2023-02-16T08:16:10;100905.09;;;2.25;100.00
68193;BME280;55012;47.562;18.414;2023-02-16T08:18:37;100914.53;;;2.33;100.00
68193;BME280;55012;47.562;18.414;2023-02-16T08:21:15;100916.78;;;2.41;100.00
68193;BME280;55012;47.562;18.414;2023-02-16T08:23:54;100917.16;;;2.49;100.00
68193;BME280;55012;47.562;18.414;2023-02-16T08:26:21;100927.44;;;2.63;100.00
68193;BME280;55012;47.562;18.414;2023-02-16T08:28:47;100921.38;;;2.72;100.00
68193;BME280;55012;47.562;18.414;2023-02-16T08:31:22;100926.59;;;2.84;100.00
68193;BME280;55012;47.562;18.414;2023-02-16T08:33:49;100928.56;;;2.94;100.00
68193;BME280;55012;47.562;18.414;2023-02-16T08:38:41;100924.44;;;3.08;100.00
68193;BME280;55012;47.562;18.414;2023-02-16T08:41:07;100936.00;;;3.19;100.00
68193;BME280;55012;47.562;18.414;2023-02-16T08:43:33;100941.69;;;3.27;100.00
68193;BME280;55012;47.562;18.414;2023-02-16T08:45:58;100938.28;;;3.32;100.00
68193;BME280;55012;47.562;18.414;2023-02-16T08:48:24;100945.25;;;3.38;100.00
68193;BME280;55012;47.562;18.414;2023-02-16T08:50:53;100943.72;;;3.42;100.00
68193;BME280;55012;47.562;18.414;2023-02-16T08:53:20;100948.28;;;3.47;100.00
68193;BME280;55012;47.562;18.414;2023-02-16T08:55:52;100957.97;;;3.53;100.00
68193;BME280;55012;47.562;18.414;2023-02-16T08:58:18;100956.88;;;3.49;100.00
68193;BME280;55012;47.562;18.414;2023-02-16T09:00:43;100968.66;;;3.48;100.00
68193;BME280;55012;47.562;18.414;2023-02-16T09:03:09;100972.66;;;3.50;100.00
68193;BME280;55012;47.562;18.414;2023-02-16T09:05:34;100974.53;;;3.50;100.00
68193;BME280;55012;47.562;18.414;2023-02-16T09:08:00;100974.81;;;3.53;100.00
68193;BME280;55012;47.562;18.414;2023-02-16T09:10:25;100979.16;;;3.59;100.00
68193;BME280;55012;47.562;18.414;2023-02-16T09:12:51;100983.50;;;3.65;100.00
68193;BME280;55012;47.562;18.414;2023-02-16T09:15:16;100969.06;;;3.72;100.00
68193;BME280;55012;47.562;18.414;2023-02-16T09:17:42;100978.75;;;3.78;100.00
68193;BME280;55012;47.562;18.414;2023-02-16T09:20:08;100980.38;;;3.79;100.00
68193;BME280;55012;47.562;18.414;2023-02-16T09:22:33;100973.41;;;3.78;100.00
68193;BME280;55012;47.562;18.414;2023-02-16T09:24:59;100965.91;;;3.80;100.00
68193;BME280;55012;47.562;18.414;2023-02-16T09:27:24;100962.19;;;3.81;100.00
68193;BME280;55012;47.562;18.414;2023-02-16T09:29:52;100948.56;;;3.82;100.00
68193;BME280;55012;47.562;18.414;2023-02-16T09:32:17;100959.00;;;3.84;100.00
68193;BME280;55012;47.562;18.414;2023-02-16T09:34:43;100965.44;;;3.88;100.00
68193;BME280;55012;47.562;18.414;2023-02-16T09:37:14;100962.25;;;3.91;100.00
68193;BME280;55012;47.562;18.414;2023-02-16T09:39:40;100955.31;;;3.90;100.00
68193;BME280;55012;47.562;18.414;2023-02-16T09:45:04;100962.59;;;4.05;100.00
68193;BME280;55012;47.562;18.414;2023-02-16T09:47:34;100964.56;;;4.14;100.00
68193;BME280;55012;47.562;18.414;2023-02-16T09:50:05;100961.34;;;4.17;100.00
68193;BME280;55012;47.562;18.414;2023-02-16T09:55:24;100949.59;;;4.29;100.00
68193;BME280;55012;47.562;18.414;2023-02-16T09:58:04;100950.97;;;4.36;100.00
68193;BME280;55012;47.562;18.414;2023-02-16T10:06:08;100932.59;;;4.60;100.00
68193;BME280;55012;47.562;18.414;2023-02-16T10:08:46;100929.13;;;4.70;100.00
68193;BME280;55012;47.562;18.414;2023-02-16T10:11:24;100932.91;;;4.79;100.00
68193;BME280;55012;47.562;18.414;2023-02-16T10:19:51;100916.56;;;4.96;100.00
68193;BME280;55012;47.562;18.414;2023-02-16T10:22:36;100900.50;;;5.01;100.00
68193;BME280;55012;47.562;18.414;2023-02-16T10:25:28;100900.25;;;4.97;100.00
68193;BME280;55012;47.562;18.414;2023-02-16T10:28:19;100865.38;;;4.97;100.00
68193;BME280;55012;47.562;18.414;2023-02-16T10:39:36;100833.44;;;5.11;100.00
68193;BME280;55012;47.562;18.414;2023-02-16T10:42:28;100826.19;;;5.17;100.00
68193;BME280;55012;47.562;18.414;2023-02-16T10:47:33;100795.34;;;5.19;100.00
68193;BME280;55012;47.562;18.414;2023-02-16T10:50:03;100783.28;;;5.22;100.00
68193;BME280;55012;47.562;18.414;2023-02-16T10:52:32;100783.78;;;5.29;100.00
68193;BME280;55012;47.562;18.414;2023-02-16T10:55:00;100777.34;;;5.35;100.00
68193;BME280;55012;47.562;18.414;2023-02-16T10:57:29;100776.25;;;5.36;100.00
68193;BME280;55012;47.562;18.414;2023-02-16T10:59:56;100751.81;;;5.38;100.00
68193;BME280;55012;47.562;18.414;2023-02-16T11:02:37;100748.59;;;5.46;100.00
68193;BME280;55012;47.562;18.414;2023-02-16T11:07:57;100742.09;;;5.62;100.00
68193;BME280;55012;47.562;18.414;2023-02-16T11:13:00;100734.59;;;5.54;100.00
68193;BME280;55012;47.562;18.414;2023-02-16T11:15:27;100728.41;;;5.58;100.00
68193;BME280;55012;47.562;18.414;2023-02-16T11:20:57;100736.41;;;5.74;100.00
68193;BME280;55012;47.562;18.414;2023-02-16T11:23:26;100735.06;;;5.76;100.00
68193;BME280;55012;47.562;18.414;2023-02-16T11:26:05;100729.97;;;5.75;100.00
68193;BME280;55012;47.562;18.414;2023-02-16T11:28:46;100713.91;;;5.64;100.00
68193;BME280;55012;47.562;18.414;2023-02-16T11:31:30;100714.19;;;5.58;100.00
68193;BME280;55012;47.562;18.414;2023-02-16T11:34:03;100712.06;;;5.55;100.00
68193;BME280;55012;47.562;18.414;2023-02-16T11:39:12;100736.75;;;5.52;100.00
68193;BME280;55012;47.562;18.414;2023-02-16T11:41:56;100721.22;;;5.49;100.00
68193;BME280;55012;47.562;18.414;2023-02-16T11:47:05;100748.53;;;5.66;100.00
68193;BME280;55012;47.562;18.414;2023-02-16T11:49:36;100747.19;;;5.63;100.00
68193;BME280;55012;47.562;18.414;2023-02-16T11:54:52;100738.53;;;5.77;100.00
68193;BME280;55012;47.562;18.414;2023-02-16T11:57:26;100734.75;;;5.88;100.00
68193;BME280;55012;47.562;18.414;2023-02-16T11:59:54;100732.31;;;5.97;100.00
68193;BME280;55012;47.562;18.414;2023-02-16T12:05:24;100746.72;;;6.11;100.00
68193;BME280;55012;47.562;18.414;2023-02-16T12:08:08;100740.50;;;6.15;100.00
68193;BME280;55012;47.562;18.414;2023-02-16T12:10:56;100723.59;;;6.15;100.00
68193;BME280;55012;47.562;18.414;2023-02-16T12:16:46;100709.84;;;6.22;100.00
68193;BME280;55012;47.562;18.414;2023-02-16T12:19:26;100710.91;;;6.20;100.00
68193;BME280;55012;47.562;18.414;2023-02-16T12:27:32;100688.09;;;6.18;100.00
68193;BME280;55012;47.562;18.414;2023-02-16T12:33:20;100689.88;;;6.33;100.00
68193;BME280;55012;47.562;18.414;2023-02-16T12:44:04;100635.50;;;6.41;100.00
68193;BME280;55012;47.562;18.414;2023-02-16T12:46:38;100620.19;;;6.41;100.00
68193;BME280;55012;47.562;18.414;2023-02-16T12:49:19;100616.69;;;6.41;100.00
68193;BME280;55012;47.562;18.414;2023-02-16T12:51:59;100612.31;;;6.50;100.00
68193;BME280;55012;47.562;18.414;2023-02-16T12:54:35;100577.31;;;6.55;100.00
68193;BME280;55012;47.562;18.414;2023-02-16T12:57:16;100552.25;;;6.60;100.00
68193;BME280;55012;47.562;18.414;2023-02-16T12:59:48;100521.03;;;6.64;100.00
68193;BME280;55012;47.562;18.414;2023-02-16T13:02:26;100522.16;;;6.82;100.00
68193;BME280;55012;47.562;18.414;2023-02-16T13:05:01;100517.94;;;6.94;100.00
68193;BME280;55012;47.562;18.414;2023-02-16T13:10:26;100455.28;;;7.13;100.00
68193;BME280;55012;47.562;18.414;2023-02-16T13:13:00;100421.53;;;7.20;100.00
68193;BME280;55012;47.562;18.414;2023-02-16T13:15:36;100388.34;;;7.25;100.00
68193;BME280;55012;47.562;18.414;2023-02-16T13:20:44;100374.59;;;7.26;100.00
68193;BME280;55012;47.562;18.414;2023-02-16T13:26:19;100349.38;;;7.22;100.00
68193;BME280;55012;47.562;18.414;2023-02-16T13:29:27;100348.28;;;7.23;100.00
68193;BME280;55012;47.562;18.414;2023-02-16T13:32:23;100340.22;;;7.23;100.00
68193;BME280;55012;47.562;18.414;2023-02-16T13:41:13;100257.88;;;7.50;100.00
68193;BME280;55012;47.562;18.414;2023-02-16T13:43:51;100246.72;;;7.56;100.00
68193;BME280;55012;47.562;18.414;2023-02-16T13:46:31;100238.84;;;7.60;100.00
68193;BME280;55012;47.562;18.414;2023-02-16T13:48:59;100211.00;;;7.51;100.00
68193;BME280;55012;47.562;18.414;2023-02-16T13:51:27;100205.63;;;7.51;100.00
68193;BME280;55012;47.562;18.414;2023-02-16T13:53:58;100217.59;;;7.58;100.00
68193;BME280;55012;47.562;18.414;2023-02-16T13:58:54;100219.88;;;7.65;100.00
68193;BME280;55012;47.562;18.414;2023-02-16T14:03:57;100199.06;;;7.57;100.00
68193;BME280;55012;47.562;18.414;2023-02-16T14:14:33;100198.81;;;7.95;100.00
68193;BME280;55012;47.562;18.414;2023-02-16T14:33:39;100069.59;;;7.89;100.00
68193;BME280;55012;47.562;18.414;2023-02-16T14:36:19;100075.94;;;7.71;100.00
68193;BME280;55012;47.562;18.414;2023-02-16T14:38:46;100094.22;;;7.60;100.00
68193;BME280;55012;47.562;18.414;2023-02-16T14:43:49;100135.50;;;7.70;100.00
68193;BME280;55012;47.562;18.414;2023-02-16T15:00:23;100164.75;;;7.49;100.00
68193;BME280;55012;47.562;18.414;2023-02-16T15:03:01;100180.91;;;7.49;100.00
68193;BME280;55012;47.562;18.414;2023-02-16T15:05:30;100198.06;;;7.39;100.00
68193;BME280;55012;47.562;18.414;2023-02-16T15:08:16;100228.56;;;7.35;100.00
68193;BME280;55012;47.562;18.414;2023-02-16T15:10:44;100238.72;;;7.24;100.00
68193;BME280;55012;47.562;18.414;2023-02-16T15:13:25;100264.31;;;7.08;100.00
68193;BME280;55012;47.562;18.414;2023-02-16T15:15:54;100294.41;;;7.10;100.00
68193;BME280;55012;47.562;18.414;2023-02-16T15:18:30;100314.09;;;7.24;100.00
68193;BME280;55012;47.562;18.414;2023-02-16T15:20:57;100301.75;;;7.50;100.00
68193;BME280;55012;47.562;18.414;2023-02-16T15:23:31;100283.03;;;7.73;100.00
68193;BME280;55012;47.562;18.414;2023-02-16T15:26:07;100269.19;;;8.15;100.00
68193;BME280;55012;47.562;18.414;2023-02-16T15:28:56;100194.69;;;8.78;100.00
68193;BME280;55012;47.562;18.414;2023-02-16T15:31:34;100064.19;;;9.31;100.00
68193;BME280;55012;47.562;18.414;2023-02-16T15:34:05;100023.22;;;9.29;100.00
68193;BME280;55012;47.562;18.414;2023-02-16T15:36:36;99972.84;;;9.07;100.00
68193;BME280;55012;47.562;18.414;2023-02-16T15:39:15;99963.47;;;8.96;100.00